sensor_id;sensor_type;location;lat;lon;timestamp;P1;durP1;ratioP1;P2;durP2;ratioP2
23670;SDS011;12012;51.998;7.614;2022-12-07T00:00:54;34.25;;;22.70;;
23670;SDS011;12012;51.998;7.614;2022-12-07T00:03:20;34.28;;;21.50;;
23670;SDS011;12012;51.998;7.614;2022-12-07T00:05:46;31.60;;;22.05;;
23670;SDS011;12012;51.998;7.614;2022-12-07T00:08:11;32.92;;;21.80;;
23670;SDS011;12012;51.998;7.614;2022-12-07T00:10:37;31.05;;;19.38;;
23670;SDS011;12012;51.998;7.614;2022-12-07T00:13:02;27.77;;;19.88;;
23670;SDS011;12012;51.998;7.614;2022-12-07T00:15:28;27.92;;;19.77;;
23670;SDS011;12012;51.998;7.614;2022-12-07T00:17:54;29.55;;;19.80;;
23670;SDS011;12012;51.998;7.614;2022-12-07T00:20:19;26.35;;;18.08;;
23670;SDS011;12012;51.998;7.614;2022-12-07T00:22:45;25.92;;;18.30;;
23670;SDS011;12012;51.998;7.614;2022-12-07T00:25:10;28.65;;;19.55;;
23670;SDS011;12012;51.998;7.614;2022-12-07T00:27:36;27.17;;;18.75;;
23670;SDS011;12012;51.998;7.614;2022-12-07T00:30:01;28.77;;;18.90;;
23670;SDS011;12012;51.998;7.614;2022-12-07T00:32:27;25.38;;;17.40;;
23670;SDS011;12012;51.998;7.614;2022-12-07T00:34:52;25.63;;;17.98;;
23670;SDS011;12012;51.998;7.614;2022-12-07T00:37:18;28.08;;;18.58;;
23670;SDS011;12012;51.998;7.614;2022-12-07T00:39:45;27.83;;;18.33;;
23670;SDS011;12012;51.998;7.614;2022-12-07T00:42:11;25.58;;;18.33;;
23670;SDS011;12012;51.998;7.614;2022-12-07T00:44:36;27.10;;;18.50;;
23670;SDS011;12012;51.998;7.614;2022-12-07T00:47:02;24.77;;;17.63;;
23670;SDS011;12012;51.998;7.614;2022-12-07T00:49:27;26.13;;;17.80;;
23670;SDS011;12012;51.998;7.614;2022-12-07T00:51:53;23.38;;;17.45;;
23670;SDS011;12012;51.998;7.614;2022-12-07T00:54:18;25.20;;;17.58;;
23670;SDS011;12012;51.998;7.614;2022-12-07T00:56:44;23.08;;;16.30;;
23670;SDS011;12012;51.998;7.614;2022-12-07T00:59:10;25.83;;;16.90;;
23670;SDS011;12012;51.998;7.614;2022-12-07T01:01:39;25.95;;;16.08;;
23670;SDS011;12012;51.998;7.614;2022-12-07T01:04:05;30.10;;;19.33;;
23670;SDS011;12012;51.998;7.614;2022-12-07T01:06:31;27.17;;;18.40;;
23670;SDS011;12012;51.998;7.614;2022-12-07T01:08:57;27.05;;;17.48;;
23670;SDS011;12012;51.998;7.614;2022-12-07T01:11:24;24.85;;;17.08;;
23670;SDS011;12012;51.998;7.614;2022-12-07T01:13:51;28.73;;;18.17;;
23670;SDS011;12012;51.998;7.614;2022-12-07T01:16:19;26.35;;;18.52;;
23670;SDS011;12012;51.998;7.614;2022-12-07T01:18:47;30.80;;;19.05;;
23670;SDS011;12012;51.998;7.614;2022-12-07T01:21:15;25.33;;;16.85;;
23670;SDS011;12012;51.998;7.614;2022-12-07T01:26:12;26.65;;;17.10;;
23670;SDS011;12012;51.998;7.614;2022-12-07T01:28:40;33.45;;;19.23;;
23670;SDS011;12012;51.998;7.614;2022-12-07T01:31:07;29.02;;;18.80;;
23670;SDS011;12012;51.998;7.614;2022-12-07T01:33:39;31.23;;;19.55;;
23670;SDS011;12012;51.998;7.614;2022-12-07T01:36:22;29.05;;;18.63;;
23670;SDS011;12012;51.998;7.614;2022-12-07T01:38:50;30.80;;;19.58;;
23670;SDS011;12012;51.998;7.614;2022-12-07T01:41:19;31.60;;;19.90;;
23670;SDS011;12012;51.998;7.614;2022-12-07T01:46:32;28.13;;;18.67;;
23670;SDS011;12012;51.998;7.614;2022-12-07T01:48:58;28.58;;;18.90;;
23670;SDS011;12012;51.998;7.614;2022-12-07T01:51:24;34.90;;;20.30;;
23670;SDS011;12012;51.998;7.614;2022-12-07T01:53:51;33.65;;;20.20;;
23670;SDS011;12012;51.998;7.614;2022-12-07T01:56:18;30.83;;;19.20;;
23670;SDS011;12012;51.998;7.614;2022-12-07T01:58:49;31.35;;;19.00;;
23670;SDS011;12012;51.998;7.614;2022-12-07T02:01:16;33.50;;;20.15;;
23670;SDS011;12012;51.998;7.614;2022-12-07T02:03:42;30.88;;;18.73;;
23670;SDS011;12012;51.998;7.614;2022-12-07T02:06:10;34.00;;;20.38;;
23670;SDS011;12012;51.998;7.614;2022-12-07T02:08:39;29.88;;;18.70;;
23670;SDS011;12012;51.998;7.614;2022-12-07T02:11:05;34.40;;;19.90;;
23670;SDS011;12012;51.998;7.614;2022-12-07T02:13:33;32.28;;;20.08;;
23670;SDS011;12012;51.998;7.614;2022-12-07T02:18:53;38.67;;;21.70;;
23670;SDS011;12012;51.998;7.614;2022-12-07T02:21:34;36.92;;;21.10;;
23670;SDS011;12012;51.998;7.614;2022-12-07T02:27:16;34.92;;;21.27;;
23670;SDS011;12012;51.998;7.614;2022-12-07T02:30:04;32.97;;;19.80;;
23670;SDS011;12012;51.998;7.614;2022-12-07T02:40:52;33.05;;;19.45;;
23670;SDS011;12012;51.998;7.614;2022-12-07T02:43:24;39.53;;;21.40;;
23670;SDS011;12012;51.998;7.614;2022-12-07T02:45:51;34.90;;;19.95;;
23670;SDS011;12012;51.998;7.614;2022-12-07T02:48:21;32.83;;;20.45;;
23670;SDS011;12012;51.998;7.614;2022-12-07T02:50:50;36.97;;;20.50;;
23670;SDS011;12012;51.998;7.614;2022-12-07T02:53:30;34.85;;;19.30;;
23670;SDS011;12012;51.998;7.614;2022-12-07T02:55:59;38.30;;;20.77;;
23670;SDS011;12012;51.998;7.614;2022-12-07T03:01:22;33.25;;;19.27;;
23670;SDS011;12012;51.998;7.614;2022-12-07T03:15:14;37.20;;;19.40;;
23670;SDS011;12012;51.998;7.614;2022-12-07T03:17:45;28.15;;;18.35;;
23670;SDS011;12012;51.998;7.614;2022-12-07T03:20:13;32.15;;;18.90;;
23670;SDS011;12012;51.998;7.614;2022-12-07T03:22:42;34.83;;;18.80;;
23670;SDS011;12012;51.998;7.614;2022-12-07T03:25:10;32.72;;;18.98;;
23670;SDS011;12012;51.998;7.614;2022-12-07T03:27:47;28.40;;;17.45;;
23670;SDS011;12012;51.998;7.614;2022-12-07T03:30:22;32.30;;;16.90;;
23670;SDS011;12012;51.998;7.614;2022-12-07T03:33:02;34.30;;;17.48;;
23670;SDS011;12012;51.998;7.614;2022-12-07T03:38:42;37.00;;;18.70;;
23670;SDS011;12012;51.998;7.614;2022-12-07T03:41:28;32.15;;;17.70;;
23670;SDS011;12012;51.998;7.614;2022-12-07T03:43:56;33.42;;;17.10;;
23670;SDS011;12012;51.998;7.614;2022-12-07T03:46:42;30.13;;;17.50;;
23670;SDS011;12012;51.998;7.614;2022-12-07T03:52:43;31.77;;;17.27;;
23670;SDS011;12012;51.998;7.614;2022-12-07T03:55:20;36.63;;;17.65;;
23670;SDS011;12012;51.998;7.614;2022-12-07T03:57:54;31.15;;;15.70;;
23670;SDS011;12012;51.998;7.614;2022-12-07T04:00:22;31.95;;;15.85;;
23670;SDS011;12012;51.998;7.614;2022-12-07T04:02:50;28.83;;;16.27;;
23670;SDS011;12012;51.998;7.614;2022-12-07T04:05:17;25.58;;;15.00;;
23670;SDS011;12012;51.998;7.614;2022-12-07T04:07:42;32.45;;;15.85;;
23670;SDS011;12012;51.998;7.614;2022-12-07T04:10:08;26.90;;;14.57;;
23670;SDS011;12012;51.998;7.614;2022-12-07T04:12:34;26.10;;;14.65;;
23670;SDS011;12012;51.998;7.614;2022-12-07T04:15:00;27.92;;;13.40;;
23670;SDS011;12012;51.998;7.614;2022-12-07T04:17:25;26.77;;;13.60;;
23670;SDS011;12012;51.998;7.614;2022-12-07T04:19:51;24.27;;;12.88;;
23670;SDS011;12012;51.998;7.614;2022-12-07T04:22:16;25.50;;;12.65;;
23670;SDS011;12012;51.998;7.614;2022-12-07T04:24:42;25.52;;;12.82;;
23670;SDS011;12012;51.998;7.614;2022-12-07T04:27:07;25.75;;;11.95;;
23670;SDS011;12012;51.998;7.614;2022-12-07T04:29:33;28.52;;;12.10;;
23670;SDS011;12012;51.998;7.614;2022-12-07T04:31:58;24.20;;;11.13;;
23670;SDS011;12012;51.998;7.614;2022-12-07T04:34:24;20.17;;;11.57;;
23670;SDS011;12012;51.998;7.614;2022-12-07T04:36:49;20.58;;;11.63;;
23670;SDS011;12012;51.998;7.614;2022-12-07T04:39:22;23.17;;;10.77;;
23670;SDS011;12012;51.998;7.614;2022-12-07T04:41:52;21.52;;;10.60;;
23670;SDS011;12012;51.998;7.614;2022-12-07T04:44:18;25.13;;;11.27;;
23670;SDS011;12012;51.998;7.614;2022-12-07T04:46:45;21.25;;;10.70;;
23670;SDS011;12012;51.998;7.614;2022-12-07T04:49:11;22.00;;;10.57;;
23670;SDS011;12012;51.998;7.614;2022-12-07T04:51:38;17.98;;;10.40;;
23670;SDS011;12012;51.998;7.614;2022-12-07T04:54:03;16.15;;;10.05;;
23670;SDS011;12012;51.998;7.614;2022-12-07T04:56:29;26.13;;;11.38;;
23670;SDS011;12012;51.998;7.614;2022-12-07T04:58:55;20.45;;;10.43;;
23670;SDS011;12012;51.998;7.614;2022-12-07T05:01:21;24.17;;;9.57;;
23670;SDS011;12012;51.998;7.614;2022-12-07T05:03:47;17.30;;;9.55;;
23670;SDS011;12012;51.998;7.614;2022-12-07T05:06:13;18.00;;;10.45;;
23670;SDS011;12012;51.998;7.614;2022-12-07T05:08:39;22.15;;;10.07;;
23670;SDS011;12012;51.998;7.614;2022-12-07T05:11:06;21.33;;;9.18;;
23670;SDS011;12012;51.998;7.614;2022-12-07T05:13:32;24.10;;;9.50;;
23670;SDS011;12012;51.998;7.614;2022-12-07T05:15:58;18.52;;;9.68;;
23670;SDS011;12012;51.998;7.614;2022-12-07T05:18:24;27.70;;;9.82;;
23670;SDS011;12012;51.998;7.614;2022-12-07T05:20:50;18.42;;;9.18;;
23670;SDS011;12012;51.998;7.614;2022-12-07T05:23:16;18.17;;;8.52;;
23670;SDS011;12012;51.998;7.614;2022-12-07T05:25:42;19.23;;;8.20;;
23670;SDS011;12012;51.998;7.614;2022-12-07T05:28:08;19.00;;;8.63;;
23670;SDS011;12012;51.998;7.614;2022-12-07T05:30:34;16.73;;;8.23;;
23670;SDS011;12012;51.998;7.614;2022-12-07T05:32:59;14.57;;;7.80;;
23670;SDS011;12012;51.998;7.614;2022-12-07T05:35:25;14.05;;;7.35;;
23670;SDS011;12012;51.998;7.614;2022-12-07T05:37:51;15.32;;;7.05;;
23670;SDS011;12012;51.998;7.614;2022-12-07T05:40:16;18.10;;;7.40;;
23670;SDS011;12012;51.998;7.614;2022-12-07T05:42:43;20.05;;;7.25;;
23670;SDS011;12012;51.998;7.614;2022-12-07T05:45:09;17.23;;;7.13;;
23670;SDS011;12012;51.998;7.614;2022-12-07T05:47:35;13.35;;;6.82;;
23670;SDS011;12012;51.998;7.614;2022-12-07T05:50:03;12.73;;;5.90;;
23670;SDS011;12012;51.998;7.614;2022-12-07T05:52:29;18.55;;;6.88;;
23670;SDS011;12012;51.998;7.614;2022-12-07T05:54:55;13.45;;;6.32;;
23670;SDS011;12012;51.998;7.614;2022-12-07T05:57:21;13.25;;;6.70;;
23670;SDS011;12012;51.998;7.614;2022-12-07T05:59:46;18.73;;;6.30;;
23670;SDS011;12012;51.998;7.614;2022-12-07T06:02:12;18.70;;;7.15;;
23670;SDS011;12012;51.998;7.614;2022-12-07T06:04:40;18.25;;;6.28;;
23670;SDS011;12012;51.998;7.614;2022-12-07T06:07:08;14.38;;;6.55;;
23670;SDS011;12012;51.998;7.614;2022-12-07T06:09:35;17.73;;;6.45;;
23670;SDS011;12012;51.998;7.614;2022-12-07T06:12:01;15.00;;;6.50;;
23670;SDS011;12012;51.998;7.614;2022-12-07T06:14:46;17.42;;;5.47;;
23670;SDS011;12012;51.998;7.614;2022-12-07T06:17:11;12.55;;;5.00;;
23670;SDS011;12012;51.998;7.614;2022-12-07T06:19:38;15.57;;;5.43;;
23670;SDS011;12012;51.998;7.614;2022-12-07T06:22:04;13.38;;;4.93;;
23670;SDS011;12012;51.998;7.614;2022-12-07T06:24:31;14.32;;;4.97;;
23670;SDS011;12012;51.998;7.614;2022-12-07T06:26:57;16.42;;;4.90;;
23670;SDS011;12012;51.998;7.614;2022-12-07T06:29:23;16.30;;;4.70;;
23670;SDS011;12012;51.998;7.614;2022-12-07T06:31:48;15.88;;;5.53;;
23670;SDS011;12012;51.998;7.614;2022-12-07T06:34:15;16.17;;;5.57;;
23670;SDS011;12012;51.998;7.614;2022-12-07T06:36:44;18.90;;;5.70;;
23670;SDS011;12012;51.998;7.614;2022-12-07T06:39:10;13.50;;;5.68;;
23670;SDS011;12012;51.998;7.614;2022-12-07T06:41:37;12.57;;;6.38;;
23670;SDS011;12012;51.998;7.614;2022-12-07T06:44:04;18.35;;;5.65;;
23670;SDS011;12012;51.998;7.614;2022-12-07T06:46:31;21.60;;;5.93;;
23670;SDS011;12012;51.998;7.614;2022-12-07T06:48:57;16.45;;;5.82;;
23670;SDS011;12012;51.998;7.614;2022-12-07T06:51:22;14.68;;;5.35;;
23670;SDS011;12012;51.998;7.614;2022-12-07T06:53:48;13.00;;;5.70;;
23670;SDS011;12012;51.998;7.614;2022-12-07T06:56:14;21.48;;;5.70;;
23670;SDS011;12012;51.998;7.614;2022-12-07T06:58:40;12.48;;;5.93;;
23670;SDS011;12012;51.998;7.614;2022-12-07T07:01:10;14.57;;;5.40;;
23670;SDS011;12012;51.998;7.614;2022-12-07T07:03:36;13.95;;;5.75;;
23670;SDS011;12012;51.998;7.614;2022-12-07T07:06:02;12.52;;;4.75;;
23670;SDS011;12012;51.998;7.614;2022-12-07T07:08:28;16.42;;;5.45;;
23670;SDS011;12012;51.998;7.614;2022-12-07T07:10:54;15.07;;;5.03;;
23670;SDS011;12012;51.998;7.614;2022-12-07T07:13:19;18.70;;;5.38;;
23670;SDS011;12012;51.998;7.614;2022-12-07T07:15:45;15.02;;;5.70;;
23670;SDS011;12012;51.998;7.614;2022-12-07T07:18:10;18.80;;;6.13;;
23670;SDS011;12012;51.998;7.614;2022-12-07T07:20:36;11.18;;;4.93;;
23670;SDS011;12012;51.998;7.614;2022-12-07T07:23:02;12.63;;;4.72;;
23670;SDS011;12012;51.998;7.614;2022-12-07T07:25:28;14.52;;;5.10;;
23670;SDS011;12012;51.998;7.614;2022-12-07T07:27:53;13.30;;;5.45;;
23670;SDS011;12012;51.998;7.614;2022-12-07T07:30:19;15.65;;;5.32;;
23670;SDS011;12012;51.998;7.614;2022-12-07T07:32:45;15.68;;;4.68;;
23670;SDS011;12012;51.998;7.614;2022-12-07T07:35:11;17.95;;;5.15;;
23670;SDS011;12012;51.998;7.614;2022-12-07T07:37:37;13.65;;;5.07;;
23670;SDS011;12012;51.998;7.614;2022-12-07T07:40:02;16.08;;;4.60;;
23670;SDS011;12012;51.998;7.614;2022-12-07T07:42:28;17.10;;;4.93;;
23670;SDS011;12012;51.998;7.614;2022-12-07T07:44:54;12.43;;;4.55;;
23670;SDS011;12012;51.998;7.614;2022-12-07T07:47:20;13.15;;;4.43;;
23670;SDS011;12012;51.998;7.614;2022-12-07T07:49:45;14.35;;;4.50;;
23670;SDS011;12012;51.998;7.614;2022-12-07T07:52:11;13.57;;;4.60;;
23670;SDS011;12012;51.998;7.614;2022-12-07T07:54:36;11.43;;;3.95;;
23670;SDS011;12012;51.998;7.614;2022-12-07T07:57:02;15.77;;;4.82;;
23670;SDS011;12012;51.998;7.614;2022-12-07T07:59:27;17.02;;;4.90;;
23670;SDS011;12012;51.998;7.614;2022-12-07T08:01:53;10.30;;;4.25;;
23670;SDS011;12012;51.998;7.614;2022-12-07T08:04:18;15.40;;;3.97;;
23670;SDS011;12012;51.998;7.614;2022-12-07T08:06:44;12.43;;;4.43;;
23670;SDS011;12012;51.998;7.614;2022-12-07T08:09:09;10.18;;;3.40;;
23670;SDS011;12012;51.998;7.614;2022-12-07T08:11:35;10.00;;;3.72;;
23670;SDS011;12012;51.998;7.614;2022-12-07T08:14:02;10.70;;;3.60;;
23670;SDS011;12012;51.998;7.614;2022-12-07T08:16:27;12.57;;;4.28;;
23670;SDS011;12012;51.998;7.614;2022-12-07T08:18:53;14.85;;;4.25;;
23670;SDS011;12012;51.998;7.614;2022-12-07T08:21:19;11.15;;;3.83;;
23670;SDS011;12012;51.998;7.614;2022-12-07T08:23:44;13.75;;;3.70;;
23670;SDS011;12012;51.998;7.614;2022-12-07T08:26:11;10.55;;;4.38;;
23670;SDS011;12012;51.998;7.614;2022-12-07T08:28:39;11.40;;;4.00;;
23670;SDS011;12012;51.998;7.614;2022-12-07T08:31:06;14.63;;;4.40;;
23670;SDS011;12012;51.998;7.614;2022-12-07T08:33:33;17.38;;;5.07;;
23670;SDS011;12012;51.998;7.614;2022-12-07T08:36:03;12.25;;;3.72;;
23670;SDS011;12012;51.998;7.614;2022-12-07T08:38:30;12.35;;;4.15;;
23670;SDS011;12012;51.998;7.614;2022-12-07T08:40:56;14.75;;;3.85;;
23670;SDS011;12012;51.998;7.614;2022-12-07T08:43:23;14.15;;;3.88;;
23670;SDS011;12012;51.998;7.614;2022-12-07T08:48:52;12.38;;;3.35;;
23670;SDS011;12012;51.998;7.614;2022-12-07T08:51:21;19.23;;;3.97;;
23670;SDS011;12012;51.998;7.614;2022-12-07T08:53:48;8.52;;;3.65;;
23670;SDS011;12012;51.998;7.614;2022-12-07T08:56:15;20.65;;;5.05;;
23670;SDS011;12012;51.998;7.614;2022-12-07T08:58:41;10.57;;;3.45;;
23670;SDS011;12012;51.998;7.614;2022-12-07T09:01:07;11.20;;;3.65;;
23670;SDS011;12012;51.998;7.614;2022-12-07T09:03:33;11.20;;;3.15;;
23670;SDS011;12012;51.998;7.614;2022-12-07T09:05:59;12.07;;;3.00;;
23670;SDS011;12012;51.998;7.614;2022-12-07T09:08:26;12.98;;;3.28;;
23670;SDS011;12012;51.998;7.614;2022-12-07T09:10:58;11.00;;;4.10;;
23670;SDS011;12012;51.998;7.614;2022-12-07T09:13:23;13.77;;;3.35;;
23670;SDS011;12012;51.998;7.614;2022-12-07T09:15:49;10.05;;;3.10;;
23670;SDS011;12012;51.998;7.614;2022-12-07T09:18:14;11.50;;;3.10;;
23670;SDS011;12012;51.998;7.614;2022-12-07T09:20:40;8.10;;;2.30;;
23670;SDS011;12012;51.998;7.614;2022-12-07T09:23:06;10.98;;;2.80;;
23670;SDS011;12012;51.998;7.614;2022-12-07T09:25:32;10.40;;;2.55;;
23670;SDS011;12012;51.998;7.614;2022-12-07T09:27:58;8.73;;;2.75;;
23670;SDS011;12012;51.998;7.614;2022-12-07T09:30:24;11.50;;;3.08;;
23670;SDS011;12012;51.998;7.614;2022-12-07T09:32:52;9.10;;;2.65;;
23670;SDS011;12012;51.998;7.614;2022-12-07T09:35:19;11.02;;;3.15;;
23670;SDS011;12012;51.998;7.614;2022-12-07T09:37:44;10.90;;;2.20;;
23670;SDS011;12012;51.998;7.614;2022-12-07T09:40:10;12.18;;;2.83;;
23670;SDS011;12012;51.998;7.614;2022-12-07T09:42:37;12.82;;;2.63;;
23670;SDS011;12012;51.998;7.614;2022-12-07T09:45:05;7.20;;;2.42;;
23670;SDS011;12012;51.998;7.614;2022-12-07T09:47:36;11.82;;;2.85;;
23670;SDS011;12012;51.998;7.614;2022-12-07T09:50:16;6.43;;;2.20;;
23670;SDS011;12012;51.998;7.614;2022-12-07T09:52:44;11.63;;;2.70;;
23670;SDS011;12012;51.998;7.614;2022-12-07T09:55:15;11.27;;;3.05;;
23670;SDS011;12012;51.998;7.614;2022-12-07T09:58:00;8.55;;;2.58;;
23670;SDS011;12012;51.998;7.614;2022-12-07T10:00:26;8.32;;;2.10;;
23670;SDS011;12012;51.998;7.614;2022-12-07T10:03:00;7.72;;;1.83;;
23670;SDS011;12012;51.998;7.614;2022-12-07T10:05:27;7.65;;;2.30;;
23670;SDS011;12012;51.998;7.614;2022-12-07T10:07:57;9.68;;;2.70;;
23670;SDS011;12012;51.998;7.614;2022-12-07T10:10:23;7.88;;;2.13;;
23670;SDS011;12012;51.998;7.614;2022-12-07T10:13:00;10.48;;;2.78;;
23670;SDS011;12012;51.998;7.614;2022-12-07T10:15:48;8.20;;;2.38;;
23670;SDS011;12012;51.998;7.614;2022-12-07T10:23:16;6.07;;;1.83;;
23670;SDS011;12012;51.998;7.614;2022-12-07T10:25:43;6.15;;;1.88;;
23670;SDS011;12012;51.998;7.614;2022-12-07T10:28:13;6.65;;;1.90;;
23670;SDS011;12012;51.998;7.614;2022-12-07T10:30:49;9.93;;;2.00;;
23670;SDS011;12012;51.998;7.614;2022-12-07T10:39:09;6.35;;;2.40;;
23670;SDS011;12012;51.998;7.614;2022-12-07T10:41:57;7.15;;;2.20;;
23670;SDS011;12012;51.998;7.614;2022-12-07T10:44:29;5.53;;;2.17;;
23670;SDS011;12012;51.998;7.614;2022-12-07T10:47:01;10.25;;;2.42;;
23670;SDS011;12012;51.998;7.614;2022-12-07T10:50:11;7.13;;;2.95;;
23670;SDS011;12012;51.998;7.614;2022-12-07T10:55:56;9.93;;;2.35;;
23670;SDS011;12012;51.998;7.614;2022-12-07T11:03:44;5.63;;;2.15;;
23670;SDS011;12012;51.998;7.614;2022-12-07T11:06:24;8.77;;;2.20;;
23670;SDS011;12012;51.998;7.614;2022-12-07T11:11:56;7.05;;;2.38;;
23670;SDS011;12012;51.998;7.614;2022-12-07T11:14:51;7.53;;;2.25;;
23670;SDS011;12012;51.998;7.614;2022-12-07T11:17:54;7.55;;;2.58;;
23670;SDS011;12012;51.998;7.614;2022-12-07T11:25:59;6.43;;;2.03;;
23670;SDS011;12012;51.998;7.614;2022-12-07T11:28:59;5.30;;;1.85;;
23670;SDS011;12012;51.998;7.614;2022-12-07T11:36:54;9.23;;;1.90;;
23670;SDS011;12012;51.998;7.614;2022-12-07T11:41:47;6.28;;;1.73;;
23670;SDS011;12012;51.998;7.614;2022-12-07T11:47:11;7.00;;;1.90;;
23670;SDS011;12012;51.998;7.614;2022-12-07T11:52:41;5.30;;;1.65;;
23670;SDS011;12012;51.998;7.614;2022-12-07T11:55:14;7.25;;;1.88;;
23670;SDS011;12012;51.998;7.614;2022-12-07T12:03:40;6.45;;;1.83;;
23670;SDS011;12012;51.998;7.614;2022-12-07T12:06:30;11.15;;;2.08;;
23670;SDS011;12012;51.998;7.614;2022-12-07T12:20:01;5.53;;;1.63;;
23670;SDS011;12012;51.998;7.614;2022-12-07T12:22:33;7.10;;;1.73;;
23670;SDS011;12012;51.998;7.614;2022-12-07T12:25:05;5.88;;;1.77;;
23670;SDS011;12012;51.998;7.614;2022-12-07T12:27:40;6.00;;;1.75;;
23670;SDS011;12012;51.998;7.614;2022-12-07T12:32:50;6.07;;;1.60;;
23670;SDS011;12012;51.998;7.614;2022-12-07T12:37:53;6.13;;;1.55;;
23670;SDS011;12012;51.998;7.614;2022-12-07T12:42:55;7.30;;;1.90;;
23670;SDS011;12012;51.998;7.614;2022-12-07T12:45:22;8.15;;;1.83;;
23670;SDS011;12012;51.998;7.614;2022-12-07T12:50:20;8.65;;;2.72;;
23670;SDS011;12012;51.998;7.614;2022-12-07T12:52:50;10.48;;;2.28;;
23670;SDS011;12012;51.998;7.614;2022-12-07T12:55:20;4.70;;;1.80;;
23670;SDS011;12012;51.998;7.614;2022-12-07T12:58:36;10.85;;;1.65;;
23670;SDS011;12012;51.998;7.614;2022-12-07T13:00:42;6.75;;;1.65;;
23670;SDS011;12012;51.998;7.614;2022-12-07T13:03:21;8.68;;;1.80;;
23670;SDS011;12012;51.998;7.614;2022-12-07T13:06:16;8.85;;;1.80;;
23670;SDS011;12012;51.998;7.614;2022-12-07T13:08:44;4.60;;;1.67;;
23670;SDS011;12012;51.998;7.614;2022-12-07T13:16:59;8.63;;;1.90;;
23670;SDS011;12012;51.998;7.614;2022-12-07T13:22:48;9.25;;;1.83;;
23670;SDS011;12012;51.998;7.614;2022-12-07T13:28:20;8.80;;;1.85;;
23670;SDS011;12012;51.998;7.614;2022-12-07T13:31:01;7.38;;;1.77;;
23670;SDS011;12012;51.998;7.614;2022-12-07T13:33:35;9.23;;;2.05;;
23670;SDS011;12012;51.998;7.614;2022-12-07T13:36:01;6.05;;;2.15;;
23670;SDS011;12012;51.998;7.614;2022-12-07T13:38:27;7.72;;;2.10;;
23670;SDS011;12012;51.998;7.614;2022-12-07T13:41:02;6.93;;;1.98;;
23670;SDS011;12012;51.998;7.614;2022-12-07T13:43:29;13.05;;;2.38;;
23670;SDS011;12012;51.998;7.614;2022-12-07T13:45:56;8.93;;;2.00;;
23670;SDS011;12012;51.998;7.614;2022-12-07T13:51:14;8.57;;;1.98;;
23670;SDS011;12012;51.998;7.614;2022-12-07T13:53:50;7.70;;;1.77;;
23670;SDS011;12012;51.998;7.614;2022-12-07T13:56:18;11.70;;;2.05;;
23670;SDS011;12012;51.998;7.614;2022-12-07T13:58:47;9.75;;;1.90;;
23670;SDS011;12012;51.998;7.614;2022-12-07T14:01:12;8.68;;;2.08;;
23670;SDS011;12012;51.998;7.614;2022-12-07T14:03:38;7.90;;;1.83;;
23670;SDS011;12012;51.998;7.614;2022-12-07T14:06:06;9.27;;;1.95;;
23670;SDS011;12012;51.998;7.614;2022-12-07T14:08:40;9.65;;;2.28;;
23670;SDS011;12012;51.998;7.614;2022-12-07T14:11:06;10.98;;;2.33;;
23670;SDS011;12012;51.998;7.614;2022-12-07T14:14:05;8.32;;;2.50;;
23670;SDS011;12012;51.998;7.614;2022-12-07T14:16:31;5.82;;;2.05;;
23670;SDS011;12012;51.998;7.614;2022-12-07T14:19:00;12.07;;;3.58;;
23670;SDS011;12012;51.998;7.614;2022-12-07T14:21:29;10.55;;;2.40;;
23670;SDS011;12012;51.998;7.614;2022-12-07T14:24:29;12.18;;;3.25;;
23670;SDS011;12012;51.998;7.614;2022-12-07T14:26:48;12.85;;;2.53;;
23670;SDS011;12012;51.998;7.614;2022-12-07T14:31:49;11.45;;;3.20;;
23670;SDS011;12012;51.998;7.614;2022-12-07T14:34:16;15.05;;;3.85;;
23670;SDS011;12012;51.998;7.614;2022-12-07T14:36:41;8.38;;;2.55;;
23670;SDS011;12012;51.998;7.614;2022-12-07T14:39:07;11.63;;;2.80;;
23670;SDS011;12012;51.998;7.614;2022-12-07T14:41:32;10.20;;;2.10;;
23670;SDS011;12012;51.998;7.614;2022-12-07T14:44:17;9.25;;;1.80;;
23670;SDS011;12012;51.998;7.614;2022-12-07T14:46:44;8.55;;;2.25;;
23670;SDS011;12012;51.998;7.614;2022-12-07T14:49:10;7.55;;;1.98;;
23670;SDS011;12012;51.998;7.614;2022-12-07T14:51:36;7.13;;;1.70;;
23670;SDS011;12012;51.998;7.614;2022-12-07T14:54:04;16.33;;;2.35;;
23670;SDS011;12012;51.998;7.614;2022-12-07T14:56:31;10.13;;;1.70;;
23670;SDS011;12012;51.998;7.614;2022-12-07T14:58:57;6.40;;;1.63;;
23670;SDS011;12012;51.998;7.614;2022-12-07T15:01:22;6.05;;;1.63;;
23670;SDS011;12012;51.998;7.614;2022-12-07T15:03:48;13.30;;;1.92;;
23670;SDS011;12012;51.998;7.614;2022-12-07T15:06:15;5.32;;;1.50;;
23670;SDS011;12012;51.998;7.614;2022-12-07T15:08:42;8.38;;;2.05;;
23670;SDS011;12012;51.998;7.614;2022-12-07T15:11:16;7.93;;;1.67;;
23670;SDS011;12012;51.998;7.614;2022-12-07T15:13:42;9.75;;;1.73;;
23670;SDS011;12012;51.998;7.614;2022-12-07T15:16:27;5.55;;;1.52;;
23670;SDS011;12012;51.998;7.614;2022-12-07T15:18:52;8.30;;;1.90;;
23670;SDS011;12012;51.998;7.614;2022-12-07T15:21:18;7.70;;;2.55;;
23670;SDS011;12012;51.998;7.614;2022-12-07T15:23:43;10.52;;;2.15;;
23670;SDS011;12012;51.998;7.614;2022-12-07T15:26:11;6.88;;;1.73;;
23670;SDS011;12012;51.998;7.614;2022-12-07T15:28:38;9.77;;;3.28;;
23670;SDS011;12012;51.998;7.614;2022-12-07T15:31:10;6.30;;;2.38;;
23670;SDS011;12012;51.998;7.614;2022-12-07T15:33:39;10.60;;;2.45;;
23670;SDS011;12012;51.998;7.614;2022-12-07T15:36:05;11.27;;;3.33;;
23670;SDS011;12012;51.998;7.614;2022-12-07T15:38:31;15.30;;;4.65;;
23670;SDS011;12012;51.998;7.614;2022-12-07T15:40:56;12.23;;;4.47;;
23670;SDS011;12012;51.998;7.614;2022-12-07T15:43:22;16.20;;;4.90;;
23670;SDS011;12012;51.998;7.614;2022-12-07T15:46:06;18.65;;;5.55;;
23670;SDS011;12012;51.998;7.614;2022-12-07T15:48:32;12.07;;;4.28;;
23670;SDS011;12012;51.998;7.614;2022-12-07T15:51:02;10.38;;;3.17;;
23670;SDS011;12012;51.998;7.614;2022-12-07T15:53:32;10.95;;;3.45;;
23670;SDS011;12012;51.998;7.614;2022-12-07T15:55:58;17.45;;;3.65;;
23670;SDS011;12012;51.998;7.614;2022-12-07T15:58:24;8.35;;;3.42;;
23670;SDS011;12012;51.998;7.614;2022-12-07T16:00:49;10.43;;;3.80;;
23670;SDS011;12012;51.998;7.614;2022-12-07T16:03:15;11.45;;;3.78;;
23670;SDS011;12012;51.998;7.614;2022-12-07T16:05:41;19.67;;;4.65;;
23670;SDS011;12012;51.998;7.614;2022-12-07T16:08:06;13.77;;;4.50;;
23670;SDS011;12012;51.998;7.614;2022-12-07T16:10:32;11.35;;;4.45;;
23670;SDS011;12012;51.998;7.614;2022-12-07T16:12:59;14.82;;;4.60;;
23670;SDS011;12012;51.998;7.614;2022-12-07T16:15:24;12.35;;;4.55;;
23670;SDS011;12012;51.998;7.614;2022-12-07T16:17:50;17.52;;;4.88;;
23670;SDS011;12012;51.998;7.614;2022-12-07T16:20:16;13.20;;;4.30;;
23670;SDS011;12012;51.998;7.614;2022-12-07T16:22:42;11.18;;;3.95;;
23670;SDS011;12012;51.998;7.614;2022-12-07T16:25:08;9.70;;;3.88;;
23670;SDS011;12012;51.998;7.614;2022-12-07T16:27:34;12.57;;;4.60;;
23670;SDS011;12012;51.998;7.614;2022-12-07T16:30:00;15.25;;;5.25;;
23670;SDS011;12012;51.998;7.614;2022-12-07T16:32:25;11.50;;;4.32;;
23670;SDS011;12012;51.998;7.614;2022-12-07T16:34:51;16.65;;;4.88;;
23670;SDS011;12012;51.998;7.614;2022-12-07T16:37:16;16.23;;;4.97;;
23670;SDS011;12012;51.998;7.614;2022-12-07T16:39:42;12.15;;;3.95;;
23670;SDS011;12012;51.998;7.614;2022-12-07T16:42:07;10.50;;;4.68;;
23670;SDS011;12012;51.998;7.614;2022-12-07T16:44:33;17.75;;;5.93;;
23670;SDS011;12012;51.998;7.614;2022-12-07T16:46:59;13.68;;;6.15;;
23670;SDS011;12012;51.998;7.614;2022-12-07T16:49:25;15.90;;;5.68;;
23670;SDS011;12012;51.998;7.614;2022-12-07T16:51:51;18.20;;;6.15;;